createdAt,value
2017-04-24T00:00:03.085Z,99.90
2017-04-24T00:01:02.757Z,99.90
2017-04-24T00:02:03.237Z,99.90
2017-04-24T00:03:02.914Z,99.90
2017-04-24T00:04:02.653Z,99.90
2017-04-24T00:05:02.416Z,99.90
2017-04-24T00:06:02.097Z,99.90
2017-04-24T00:07:01.772Z,99.90
2017-04-24T00:08:01.472Z,99.90
2017-04-24T00:09:01.225Z,99.90
2017-04-24T00:10:00.960Z,99.90
2017-04-24T00:11:01.456Z,99.90
2017-04-24T00:12:01.185Z,99.90
2017-04-24T00:13:00.908Z,99.90
2017-04-24T00:14:00.580Z,99.90
2017-04-24T00:15:00.369Z,99.90
2017-04-24T00:16:00.166Z,99.90
2017-04-24T00:16:59.838Z,99.90
2017-04-24T00:17:59.582Z,99.90
2017-04-24T00:18:59.312Z,99.90
2017-04-24T00:19:59.755Z,99.90
2017-04-24T00:20:59.536Z,99.90
2017-04-24T00:21:59.357Z,99.90
2017-04-24T00:22:59.037Z,99.90
2017-04-24T00:23:59.552Z,99.90
2017-04-24T00:24:59.302Z,99.90
2017-04-24T00:25:58.969Z,99.90
2017-04-24T00:26:58.676Z,99.90
2017-04-24T00:27:58.429Z,99.90
2017-04-24T00:28:58.132Z,99.90
2017-04-24T00:29:57.831Z,99.90
2017-04-24T00:30:57.479Z,99.90
2017-04-24T00:31:57.152Z,99.90
2017-04-24T00:32:56.851Z,99.90
2017-04-24T00:33:56.572Z,99.90
2017-04-24T00:34:56.337Z,99.90
2017-04-24T00:35:56.094Z,99.90
2017-04-24T00:36:55.773Z,99.90
2017-04-24T00:37:55.535Z,99.90
2017-04-24T00:38:55.259Z,99.90
2017-04-24T00:39:55.004Z,99.90
2017-04-24T00:40:54.685Z,99.90
2017-04-24T00:41:54.385Z,99.90
2017-04-24T00:42:54.130Z,99.90
2017-04-24T00:43:53.860Z,99.90
2017-04-24T00:44:53.542Z,99.90
2017-04-24T00:45:53.313Z,99.90
2017-04-24T00:46:53.736Z,99.90
2017-04-24T00:47:54.196Z,99.90
2017-04-24T00:48:53.885Z,99.90
2017-04-24T00:49:53.634Z,99.90
2017-04-24T00:50:53.353Z,99.90
2017-04-24T00:51:53.757Z,99.90
2017-04-24T00:52:53.453Z,99.90
2017-04-24T00:53:53.190Z,99.90
2017-04-24T00:54:52.889Z,99.90
2017-04-24T00:55:52.573Z,99.90
2017-04-24T00:56:52.323Z,99.90
2017-04-24T00:57:52.011Z,99.90
2017-04-24T00:58:51.697Z,99.90
2017-04-24T00:59:51.410Z,99.90
2017-04-24T01:00:51.116Z,99.90
2017-04-24T01:01:50.858Z,99.90
2017-04-24T01:02:50.578Z,99.90
2017-04-24T01:03:50.318Z,99.90
2017-04-24T01:04:49.999Z,99.90
2017-04-24T01:05:49.701Z,99.90
2017-04-24T01:06:49.397Z,99.90
2017-04-24T01:07:49.066Z,99.90
2017-04-24T01:08:48.869Z,99.90
2017-04-24T01:09:49.038Z,99.90
2017-04-24T01:10:48.759Z,99.90
2017-04-24T01:11:48.554Z,99.90
2017-04-24T01:12:48.954Z,99.90
2017-04-24T01:13:48.777Z,99.90
2017-04-24T01:14:49.222Z,99.90
2017-04-24T01:15:48.945Z,99.90
2017-04-24T01:16:49.381Z,99.90
2017-04-24T01:17:49.079Z,99.90
2017-04-24T01:18:48.829Z,99.90
2017-04-24T01:19:48.560Z,99.90
2017-04-24T01:20:48.287Z,99.90
2017-04-24T01:21:47.964Z,99.90
2017-04-24T01:22:47.629Z,99.90
2017-04-24T01:23:47.303Z,99.90
2017-04-24T01:24:47.049Z,99.90
2017-04-24T01:25:46.788Z,99.90
2017-04-24T01:26:47.185Z,99.90
2017-04-24T01:27:46.878Z,99.90
2017-04-24T01:28:46.558Z,99.90
2017-04-24T01:29:46.342Z,99.90
2017-04-24T01:30:46.026Z,99.90
2017-04-24T01:31:45.701Z,99.90
2017-04-24T01:32:45.361Z,99.90
2017-04-24T01:33:45.049Z,99.90
2017-04-24T01:34:44.769Z,99.90
2017-04-24T01:35:44.533Z,99.90
2017-04-24T01:36:44.216Z,99.90
2017-04-24T01:37:44.018Z,99.90
2017-04-24T01:38:43.788Z,99.90
2017-04-24T01:39:43.479Z,99.90
2017-04-24T01:40:43.153Z,99.90
2017-04-24T01:41:42.923Z,99.90
2017-04-24T01:42:42.598Z,99.90
2017-04-24T01:43:42.261Z,99.90
2017-04-24T01:44:41.925Z,99.90
2017-04-24T01:45:41.617Z,99.90
2017-04-24T01:46:41.321Z,99.90
2017-04-24T01:47:41.054Z,99.90
2017-04-24T01:48:40.738Z,99.90
2017-04-24T01:49:40.417Z,99.90
2017-04-24T01:50:40.170Z,99.90
2017-04-24T01:51:39.853Z,99.90
2017-04-24T01:52:39.581Z,99.90
2017-04-24T01:53:39.341Z,99.90
2017-04-24T01:54:39.064Z,99.90
2017-04-24T01:55:39.497Z,99.90
2017-04-24T01:56:39.190Z,99.90
2017-04-24T01:57:38.875Z,99.90
2017-04-24T01:58:38.548Z,99.90
2017-04-24T01:59:38.354Z,99.90
2017-04-24T02:00:38.074Z,99.90
2017-04-24T02:01:37.884Z,99.90
2017-04-24T02:02:37.665Z,99.90
2017-04-24T02:03:37.368Z,99.90
2017-04-24T02:04:37.782Z,99.90
2017-04-24T02:05:38.250Z,99.90
2017-04-24T02:06:38.003Z,99.90
2017-04-24T02:07:37.665Z,99.90
2017-04-24T02:08:37.348Z,99.90
2017-04-24T02:09:37.043Z,99.90
2017-04-24T02:10:36.783Z,99.90
2017-04-24T02:11:36.531Z,99.90
2017-04-24T02:12:36.250Z,99.90
2017-04-24T02:13:35.947Z,99.90
2017-04-24T02:14:35.669Z,99.90
2017-04-24T02:15:35.341Z,99.90
2017-04-24T02:16:35.089Z,99.90
2017-04-24T02:17:34.841Z,99.90
2017-04-24T02:18:34.526Z,99.90
2017-04-24T02:19:34.273Z,99.90
2017-04-24T02:20:34.018Z,99.90
2017-04-24T02:21:33.730Z,99.90
2017-04-24T02:22:33.397Z,99.90
2017-04-24T02:23:33.186Z,99.90
2017-04-24T02:24:32.910Z,99.90
2017-04-24T02:25:32.650Z,99.90
2017-04-24T02:26:32.434Z,99.90
2017-04-24T02:27:32.522Z,99.90
2017-04-24T02:28:32.269Z,99.90
2017-04-24T02:29:32.192Z,99.90
2017-04-24T02:30:31.919Z,99.90
2017-04-24T02:31:31.706Z,99.90
2017-04-24T02:32:31.414Z,99.90
2017-04-24T02:33:31.169Z,99.90
2017-04-24T02:34:31.017Z,99.90
2017-04-24T02:35:30.756Z,99.90
2017-04-24T02:36:30.488Z,99.90
2017-04-24T02:37:30.933Z,99.90
2017-04-24T02:38:30.669Z,99.90
2017-04-24T02:39:31.154Z,99.90
2017-04-24T02:40:30.916Z,99.90
2017-04-24T02:41:31.469Z,99.90
2017-04-24T02:42:31.200Z,99.90
2017-04-24T02:43:30.885Z,99.90
2017-04-24T02:44:31.577Z,99.90
2017-04-24T02:45:31.325Z,99.90
2017-04-24T02:46:30.993Z,99.90
2017-04-24T02:47:30.738Z,99.90
2017-04-24T02:48:31.150Z,99.90
2017-04-24T02:49:30.845Z,99.90
2017-04-24T02:50:30.536Z,99.90
2017-04-24T02:51:30.346Z,99.90
2017-04-24T02:52:30.010Z,99.90
2017-04-24T02:53:29.763Z,99.90
2017-04-24T02:54:30.194Z,99.90
2017-04-24T02:55:29.881Z,99.90
2017-04-24T02:56:29.558Z,99.90
2017-04-24T02:57:29.290Z,99.90
2017-04-24T02:58:28.978Z,99.90
2017-04-24T02:59:28.668Z,99.90
2017-04-24T03:00:28.335Z,99.90
2017-04-24T03:01:28.073Z,99.90
2017-04-24T03:02:27.752Z,99.90
2017-04-24T03:03:27.514Z,99.90
2017-04-24T03:04:27.259Z,99.90
2017-04-24T03:05:27.692Z,99.90
2017-04-24T03:06:27.373Z,99.90
2017-04-24T03:07:27.772Z,99.90
2017-04-24T03:08:27.517Z,99.90
2017-04-24T03:09:27.193Z,99.90
2017-04-24T03:10:26.883Z,99.90
2017-04-24T03:11:26.621Z,99.90
2017-04-24T03:12:26.388Z,99.90
2017-04-24T03:13:26.094Z,99.90
2017-04-24T03:14:25.850Z,99.90
2017-04-24T03:15:25.535Z,99.90
2017-04-24T03:16:25.229Z,99.90
2017-04-24T03:17:24.916Z,99.90
2017-04-24T03:18:24.577Z,99.90
2017-04-24T03:19:24.263Z,99.90
2017-04-24T03:20:24.009Z,99.90
2017-04-24T03:21:23.777Z,99.90
2017-04-24T03:22:23.449Z,99.90
2017-04-24T03:23:23.128Z,99.90
2017-04-24T03:24:22.809Z,99.90
2017-04-24T03:25:22.507Z,99.90
2017-04-24T03:26:22.245Z,99.90
2017-04-24T03:27:21.924Z,99.90
2017-04-24T03:28:21.664Z,99.90
2017-04-24T03:29:22.088Z,99.90
2017-04-24T03:30:21.759Z,99.90
2017-04-24T03:31:21.427Z,99.90
2017-04-24T03:32:21.205Z,99.90
2017-04-24T03:33:20.881Z,99.90
2017-04-24T03:34:20.571Z,99.90
2017-04-24T03:35:20.257Z,99.90
2017-04-24T03:36:19.921Z,99.90
2017-04-24T03:37:19.593Z,99.90
2017-04-24T03:38:19.382Z,99.90
2017-04-24T03:39:19.050Z,99.90
2017-04-24T03:40:19.516Z,99.90
2017-04-24T03:41:19.214Z,99.90
2017-04-24T03:42:18.934Z,99.90
2017-04-24T03:43:18.684Z,99.90
2017-04-24T03:44:18.378Z,99.90
2017-04-24T03:45:18.057Z,99.90
2017-04-24T03:46:17.751Z,99.90
2017-04-24T03:47:17.425Z,99.90
2017-04-24T03:48:17.094Z,99.90
2017-04-24T03:49:16.822Z,99.90
2017-04-24T03:50:17.250Z,99.90
2017-04-24T03:51:16.876Z,99.90
2017-04-24T03:52:17.333Z,99.90
2017-04-24T03:53:17.029Z,99.90
2017-04-24T03:54:16.778Z,99.90
2017-04-24T03:55:16.465Z,99.90
2017-04-24T03:56:16.120Z,99.90
2017-04-24T03:57:15.798Z,99.90
2017-04-24T03:58:15.583Z,99.90
2017-04-24T03:59:15.995Z,99.90
2017-04-24T04:00:15.769Z,99.90
2017-04-24T04:01:15.431Z,99.90
2017-04-24T04:02:15.087Z,99.90
2017-04-24T04:03:15.482Z,99.90
2017-04-24T04:04:15.133Z,99.90
2017-04-24T04:05:14.815Z,99.90
2017-04-24T04:06:14.534Z,99.90
2017-04-24T04:07:14.210Z,99.90
2017-04-24T04:08:13.885Z,99.90
2017-04-24T04:09:13.553Z,99.90
2017-04-24T04:10:13.219Z,99.90
2017-04-24T04:11:12.893Z,99.90
2017-04-24T04:12:12.808Z,99.90
2017-04-24T04:13:12.473Z,99.90
2017-04-24T04:14:12.134Z,99.90
2017-04-24T04:15:11.796Z,99.90
2017-04-24T04:16:11.479Z,99.90
2017-04-24T04:17:12.332Z,99.90
2017-04-24T04:18:12.070Z,99.90
2017-04-24T04:19:11.913Z,99.90
2017-04-24T04:20:11.607Z,99.90
2017-04-24T04:21:12.013Z,99.90
2017-04-24T04:22:11.670Z,99.90
2017-04-24T04:23:11.342Z,99.90
2017-04-24T04:24:11.096Z,99.90
2017-04-24T04:25:10.816Z,99.90
2017-04-24T04:26:10.506Z,99.90
2017-04-24T04:27:10.171Z,99.90
2017-04-24T04:28:09.853Z,99.90
2017-04-24T04:29:09.506Z,99.90
2017-04-24T04:30:09.240Z,99.90
2017-04-24T04:31:08.903Z,99.90
2017-04-24T04:32:08.568Z,99.90
2017-04-24T04:33:08.245Z,99.90
2017-04-24T04:34:07.915Z,99.90
2017-04-24T04:35:07.586Z,99.90
2017-04-24T04:36:07.364Z,99.90
2017-04-24T04:37:07.027Z,99.90
2017-04-24T04:38:06.698Z,99.90
2017-04-24T04:39:07.108Z,99.90
2017-04-24T04:40:07.545Z,99.90
2017-04-24T04:41:07.222Z,99.90
2017-04-24T04:42:06.954Z,99.90
2017-04-24T04:43:06.618Z,99.90
2017-04-24T04:44:06.307Z,99.90
2017-04-24T04:45:05.997Z,99.90
2017-04-24T04:46:05.691Z,99.90
2017-04-24T04:47:05.409Z,99.90
2017-04-24T04:48:05.161Z,99.90
2017-04-24T04:49:04.833Z,99.90
2017-04-24T04:50:04.509Z,99.90
2017-04-24T04:51:04.203Z,99.90
2017-04-24T04:52:03.901Z,99.90
2017-04-24T04:53:03.593Z,99.90
2017-04-24T04:54:04.106Z,99.90
2017-04-24T04:55:03.817Z,99.90
2017-04-24T04:56:03.516Z,99.90
2017-04-24T04:57:03.211Z,99.90
2017-04-24T04:58:03.665Z,99.90
2017-04-24T04:59:03.394Z,99.90
2017-04-24T05:00:03.077Z,99.90
2017-04-24T05:01:02.760Z,99.90
2017-04-24T05:02:02.449Z,99.90
2017-04-24T05:03:02.220Z,95.70
2017-04-24T05:04:01.915Z,94.00
2017-04-24T05:05:01.661Z,90.80
2017-04-24T05:06:01.368Z,81.50
2017-04-24T05:07:01.110Z,71.50
2017-04-24T05:08:01.545Z,63.50
2017-04-24T05:09:01.228Z,59.90
2017-04-24T05:10:01.770Z,59.10
2017-04-24T05:11:01.469Z,55.10
2017-04-24T05:12:01.199Z,54.50
2017-04-24T05:13:00.948Z,55.70
2017-04-24T05:14:00.662Z,52.90
2017-04-24T05:15:00.377Z,51.00
2017-04-24T05:16:00.138Z,51.50
2017-04-24T05:16:59.823Z,49.30
2017-04-24T05:17:59.542Z,46.80
2017-04-24T05:18:59.342Z,45.90
2017-04-24T05:19:59.037Z,43.90
2017-04-24T05:20:59.536Z,42.20
2017-04-24T05:21:59.260Z,43.70
2017-04-24T05:22:58.954Z,42.10
2017-04-24T05:23:58.645Z,40.80
2017-04-24T05:24:58.359Z,40.80
2017-04-24T05:25:58.054Z,40.00
2017-04-24T05:26:57.861Z,38.50
2017-04-24T05:27:57.555Z,38.20
2017-04-24T05:28:57.255Z,38.20
2017-04-24T05:29:56.954Z,37.60
2017-04-24T05:30:56.731Z,38.20
2017-04-24T05:31:56.426Z,36.30
2017-04-24T05:32:56.165Z,35.90
2017-04-24T05:33:55.889Z,35.40
2017-04-24T05:34:55.598Z,35.90
2017-04-24T05:35:55.298Z,34.50
2017-04-24T05:36:54.978Z,34.40
2017-04-24T05:37:54.676Z,34.00
2017-04-24T05:38:55.258Z,66.30
2017-04-24T05:39:54.925Z,31.80
2017-04-24T05:40:54.618Z,33.50
2017-04-24T05:41:54.355Z,32.60
2017-04-24T05:42:54.790Z,32.00
2017-04-24T05:44:54.429Z,32.70
2017-04-24T05:45:54.137Z,32.30
2017-04-24T05:46:53.803Z,31.90
2017-04-24T05:47:53.498Z,34.00
2017-04-24T05:48:53.201Z,32.10
2017-04-24T05:49:52.887Z,32.00
2017-04-24T05:50:53.384Z,31.30
2017-04-24T05:51:53.087Z,32.30
2017-04-24T05:52:52.776Z,33.60
2017-04-24T05:53:52.497Z,32.50
2017-04-24T05:54:52.193Z,31.60
2017-04-24T05:55:51.862Z,31.20
2017-04-24T05:56:51.610Z,31.20
2017-04-24T05:57:51.313Z,29.60
2017-04-24T05:58:50.993Z,28.50
2017-04-24T05:59:50.688Z,29.20
2017-04-24T06:00:50.596Z,30.40
2017-04-24T06:01:50.474Z,29.60
2017-04-24T06:02:50.233Z,29.00
2017-04-24T06:03:49.942Z,28.40
2017-04-24T06:04:49.630Z,28.40
2017-04-24T06:05:49.319Z,28.70
2017-04-24T06:06:49.014Z,28.00
2017-04-24T06:07:48.709Z,28.20
2017-04-24T06:08:48.484Z,28.50
2017-04-24T06:09:48.190Z,27.50
2017-04-24T06:11:47.793Z,27.80
2017-04-24T06:12:47.505Z,26.90
2017-04-24T06:13:47.309Z,43.30
2017-04-24T06:14:47.116Z,27.00
2017-04-24T06:15:46.885Z,27.90
2017-04-24T06:16:46.668Z,28.50
2017-04-24T06:17:46.389Z,27.20
2017-04-24T06:18:46.129Z,27.40
2017-04-24T06:19:45.865Z,26.90
2017-04-24T06:20:45.651Z,27.60
2017-04-24T06:21:46.126Z,28.60
2017-04-24T06:23:45.790Z,26.60
2017-04-24T06:24:45.556Z,27.80
2017-04-24T06:25:45.371Z,28.00
2017-04-24T06:26:45.059Z,27.20
2017-04-24T06:27:45.497Z,28.70
2017-04-24T06:28:45.252Z,26.30
2017-04-24T06:29:44.894Z,26.80
2017-04-24T06:30:44.685Z,26.10
2017-04-24T06:31:44.458Z,25.20
2017-04-24T06:32:44.166Z,25.20
2017-04-24T06:33:43.866Z,24.80
2017-04-24T06:34:43.561Z,24.40
2017-04-24T06:35:43.257Z,25.00
2017-04-24T06:36:42.949Z,24.30
2017-04-24T06:37:42.688Z,23.20
2017-04-24T06:38:42.381Z,23.50
2017-04-24T06:39:42.093Z,25.00
2017-04-24T06:40:41.786Z,23.40
2017-04-24T06:41:41.572Z,23.10
2017-04-24T06:42:42.035Z,24.10
2017-04-24T06:43:41.817Z,23.40
2017-04-24T06:44:41.514Z,24.10
2017-04-24T06:45:41.213Z,24.20
2017-04-24T06:46:40.898Z,23.60
2017-04-24T06:47:40.577Z,24.00
2017-04-24T06:48:40.248Z,23.00
2017-04-24T06:49:40.026Z,23.30
2017-04-24T06:50:39.713Z,24.50
2017-04-24T06:51:39.400Z,24.10
2017-04-24T06:52:39.125Z,24.30
2017-04-24T06:53:38.828Z,23.50
2017-04-24T06:54:38.526Z,24.10
2017-04-24T06:55:38.338Z,24.40
2017-04-24T06:56:38.032Z,24.40
2017-04-24T06:57:37.721Z,23.20
2017-04-24T06:58:37.468Z,23.90
2017-04-24T06:59:37.149Z,24.10
2017-04-24T07:00:37.564Z,24.70
2017-04-24T07:01:37.682Z,25.40
2017-04-24T07:02:37.369Z,25.30
2017-04-24T07:03:37.045Z,26.00
2017-04-24T07:04:36.788Z,25.40
2017-04-24T07:05:36.482Z,24.80
2017-04-24T07:06:36.182Z,25.70
2017-04-24T07:07:35.925Z,24.60
2017-04-24T07:08:35.618Z,24.50
2017-04-24T07:09:35.329Z,23.30
2017-04-24T07:10:35.025Z,23.20
2017-04-24T07:11:34.712Z,24.30
2017-04-24T07:12:34.382Z,22.00
2017-04-24T07:13:34.117Z,22.30
2017-04-24T07:14:34.016Z,22.70
2017-04-24T07:15:33.715Z,21.90
2017-04-24T07:16:33.410Z,22.00
2017-04-24T07:17:33.114Z,22.20
2017-04-24T07:18:33.019Z,21.90
2017-04-24T07:19:32.761Z,20.60
2017-04-24T07:20:32.412Z,22.00
2017-04-24T07:21:32.157Z,24.10
2017-04-24T07:22:31.861Z,24.20
2017-04-24T07:23:31.566Z,26.50
2017-04-24T07:24:31.262Z,26.50
2017-04-24T07:25:31.034Z,27.80
2017-04-24T07:26:31.098Z,27.30
2017-04-24T07:27:30.782Z,27.20
2017-04-24T07:28:30.456Z,25.40
2017-04-24T07:29:30.470Z,24.30
2017-04-24T07:30:30.153Z,23.80
2017-04-24T07:31:29.906Z,23.10
2017-04-24T07:32:29.582Z,22.70
2017-04-24T07:33:29.282Z,22.70
2017-04-24T07:34:28.982Z,21.40
2017-04-24T07:35:28.688Z,23.30
2017-04-24T07:36:28.442Z,22.00
2017-04-24T07:37:28.157Z,20.20
2017-04-24T07:38:27.877Z,20.30
2017-04-24T07:39:27.589Z,20.10
2017-04-24T07:40:27.268Z,22.50
2017-04-24T07:41:26.980Z,22.60
2017-04-24T07:42:26.718Z,22.30
2017-04-24T07:43:26.495Z,23.60
2017-04-24T07:44:26.193Z,24.20
2017-04-24T07:45:25.894Z,24.80
2017-04-24T07:46:25.599Z,26.30
2017-04-24T07:47:25.270Z,25.20
2017-04-24T07:48:24.969Z,28.00
2017-04-24T07:49:24.709Z,25.50
2017-04-24T07:50:24.464Z,25.20
2017-04-24T07:51:24.909Z,25.00
2017-04-24T07:52:24.653Z,26.10
2017-04-24T07:53:24.341Z,27.00
2017-04-24T07:54:24.124Z,27.60
2017-04-24T07:55:23.899Z,28.70
2017-04-24T07:56:23.633Z,29.60
2017-04-24T07:57:23.331Z,28.60
2017-04-24T07:58:23.016Z,27.50
2017-04-24T07:59:22.701Z,27.90
2017-04-24T08:00:22.425Z,28.40
2017-04-24T08:01:22.278Z,26.80
2017-04-24T08:02:22.001Z,26.10
2017-04-24T08:03:21.702Z,24.80
2017-04-24T08:04:21.404Z,23.10
2017-04-24T08:05:21.125Z,24.30
2017-04-24T08:06:20.855Z,23.30
2017-04-24T08:07:20.631Z,23.30
2017-04-24T08:08:20.348Z,23.00
2017-04-24T08:09:20.047Z,23.80
2017-04-24T08:10:19.770Z,23.30
2017-04-24T08:11:19.479Z,23.20
2017-04-24T08:12:19.203Z,23.60
2017-04-24T08:13:18.991Z,22.70
2017-04-24T08:14:18.715Z,22.90
2017-04-24T08:15:18.587Z,22.90
2017-04-24T08:16:18.293Z,23.10
2017-04-24T08:17:17.988Z,22.40
2017-04-24T08:18:17.697Z,23.10
2017-04-24T08:19:17.439Z,24.40
2017-04-24T08:20:17.150Z,25.40
2017-04-24T08:21:16.864Z,25.80
2017-04-24T08:22:16.573Z,25.80
2017-04-24T08:23:16.306Z,25.50
2017-04-24T08:24:16.008Z,24.20
2017-04-24T08:25:15.760Z,24.00
2017-04-24T08:26:15.441Z,22.80
2017-04-24T08:27:15.129Z,21.70
2017-04-24T08:28:14.821Z,21.20
2017-04-24T08:29:14.513Z,21.30
2017-04-24T08:30:14.961Z,21.20
2017-04-24T08:31:14.711Z,20.40
2017-04-24T08:32:14.440Z,20.30
2017-04-24T08:33:14.141Z,20.40
2017-04-24T08:34:13.826Z,20.10
2017-04-24T08:35:13.552Z,19.40
2017-04-24T08:36:13.258Z,19.70
2017-04-24T08:37:12.992Z,19.20
2017-04-24T08:38:12.707Z,19.60
2017-04-24T08:39:12.404Z,19.80
2017-04-24T08:40:12.116Z,19.90
2017-04-24T08:41:11.809Z,21.40
2017-04-24T08:42:11.568Z,21.80
2017-04-24T08:43:11.378Z,24.30
2017-04-24T08:44:11.072Z,24.20
2017-04-24T08:45:10.782Z,24.70
2017-04-24T08:46:10.505Z,22.70
2017-04-24T08:47:10.449Z,22.70
2017-04-24T08:48:10.163Z,24.20
2017-04-24T08:49:09.916Z,21.80
2017-04-24T08:50:09.641Z,21.60
2017-04-24T08:51:09.338Z,20.30
2017-04-24T08:52:09.078Z,19.80
2017-04-24T08:53:08.787Z,20.00
2017-04-24T08:54:08.503Z,19.60
2017-04-24T08:55:08.998Z,20.70
2017-04-24T08:56:08.729Z,21.80
2017-04-24T08:57:08.438Z,24.10
2017-04-24T08:58:08.266Z,26.50
2017-04-24T08:59:07.981Z,26.90
2017-04-24T09:00:07.746Z,27.30
2017-04-24T09:01:07.570Z,29.00
2017-04-24T09:02:07.285Z,29.70
2017-04-24T09:03:07.018Z,28.20
2017-04-24T09:04:07.482Z,28.50
2017-04-24T09:05:07.215Z,28.80
2017-04-24T09:06:06.922Z,29.00
2017-04-24T09:07:07.471Z,29.20
2017-04-24T09:08:07.199Z,28.50
2017-04-24T09:09:06.938Z,28.00
2017-04-24T09:10:07.410Z,27.80
2017-04-24T09:11:07.171Z,27.10
2017-04-24T09:12:06.901Z,25.00
2017-04-24T09:13:06.665Z,24.10
2017-04-24T09:14:07.114Z,24.20
2017-04-24T09:15:06.832Z,21.60
2017-04-24T09:16:06.670Z,22.10
2017-04-24T09:17:06.381Z,22.20
2017-04-24T09:18:06.103Z,21.70
2017-04-24T09:19:05.872Z,21.60
2017-04-24T09:20:05.598Z,20.90
2017-04-24T09:21:05.302Z,20.20
2017-04-24T09:22:05.103Z,22.90
2017-04-24T09:23:04.837Z,22.20
2017-04-24T09:24:04.554Z,22.70
2017-04-24T09:25:04.350Z,25.00
2017-04-24T09:26:04.066Z,25.00
2017-04-24T09:27:03.761Z,26.60
2017-04-24T09:28:03.471Z,26.10
2017-04-24T09:29:03.941Z,26.70
2017-04-24T09:30:03.640Z,26.90
2017-04-24T09:31:03.464Z,26.90
2017-04-24T09:32:03.162Z,27.90
2017-04-24T09:33:02.865Z,27.70
2017-04-24T09:34:02.584Z,28.00
2017-04-24T09:35:02.334Z,28.60
2017-04-24T09:36:02.021Z,29.60
2017-04-24T09:37:01.775Z,30.80
2017-04-24T09:38:02.213Z,30.00
2017-04-24T09:39:01.920Z,29.60
2017-04-24T09:40:01.616Z,30.70
2017-04-24T09:41:01.371Z,30.90
2017-04-24T09:42:01.146Z,30.20
2017-04-24T09:43:00.949Z,30.50
2017-04-24T09:44:00.652Z,29.90
2017-04-24T09:45:00.432Z,30.70
2017-04-24T09:46:00.174Z,31.10
2017-04-24T09:46:59.900Z,30.20
2017-04-24T09:47:59.693Z,31.60
2017-04-24T09:48:59.441Z,32.80
2017-04-24T09:49:59.174Z,29.90
2017-04-24T09:50:58.868Z,30.70
2017-04-24T09:51:58.684Z,31.90
2017-04-24T09:52:59.274Z,32.70
2017-04-24T09:53:59.027Z,32.90
2017-04-24T09:54:58.750Z,33.40
2017-04-24T09:55:58.497Z,32.60
2017-04-24T09:56:58.233Z,31.30
2017-04-24T09:57:57.968Z,32.90
2017-04-24T09:58:57.722Z,31.80
2017-04-24T09:59:57.509Z,33.00
2017-04-24T10:00:57.242Z,34.50
2017-04-24T10:01:56.941Z,33.80
2017-04-24T10:02:56.673Z,32.40
2017-04-24T10:03:56.403Z,34.20
2017-04-24T10:04:56.168Z,34.20
2017-04-24T10:05:56.216Z,35.00
2017-04-24T10:06:55.921Z,35.10
2017-04-24T10:07:55.653Z,35.60
2017-04-24T10:08:55.375Z,36.80
2017-04-24T10:09:55.108Z,36.60
2017-04-24T10:10:54.973Z,37.40
2017-04-24T10:11:54.711Z,37.10
2017-04-24T10:12:54.421Z,38.10
2017-04-24T10:13:54.142Z,37.20
2017-04-24T10:14:53.874Z,36.90
2017-04-24T10:15:53.598Z,38.00
2017-04-24T10:16:53.430Z,38.60
2017-04-24T10:17:53.137Z,36.60
2017-04-24T10:18:52.849Z,36.20
2017-04-24T10:19:52.549Z,35.90
2017-04-24T10:20:52.256Z,36.10
2017-04-24T10:21:51.975Z,35.60
2017-04-24T10:22:51.750Z,34.60
2017-04-24T10:23:51.478Z,34.60
2017-04-24T10:24:51.164Z,34.00
2017-04-24T10:25:50.876Z,35.60
2017-04-24T10:26:51.334Z,34.10
2017-04-24T10:27:51.080Z,33.40
2017-04-24T10:28:50.862Z,34.20
2017-04-24T10:29:50.557Z,34.70
2017-04-24T10:30:50.293Z,34.20
2017-04-24T10:31:50.761Z,34.50
2017-04-24T10:32:50.456Z,35.40
2017-04-24T10:33:50.165Z,35.40
2017-04-24T10:34:49.964Z,34.30
2017-04-24T10:35:49.682Z,34.50
2017-04-24T10:36:49.408Z,35.10
2017-04-24T10:37:49.110Z,33.00
2017-04-24T10:38:48.851Z,32.40
2017-04-24T10:39:48.562Z,34.20
2017-04-24T10:40:48.739Z,34.10
2017-04-24T10:41:48.450Z,33.40
2017-04-24T10:42:48.152Z,35.00
2017-04-24T10:43:47.862Z,35.90
2017-04-24T10:44:47.605Z,36.00
2017-04-24T10:45:47.297Z,35.40
2017-04-24T10:46:47.084Z,36.40
2017-04-24T10:47:46.809Z,35.50
2017-04-24T10:48:47.244Z,36.10
2017-04-24T10:49:47.030Z,34.70
2017-04-24T10:50:47.534Z,34.90
2017-04-24T10:51:47.294Z,34.20
2017-04-24T10:52:47.069Z,34.40
2017-04-24T10:53:46.798Z,33.70
2017-04-24T10:54:46.613Z,35.30
2017-04-24T10:55:46.329Z,35.50
2017-04-24T10:56:46.048Z,35.00
2017-04-24T10:57:45.822Z,34.60
2017-04-24T10:58:45.520Z,35.20
2017-04-24T10:59:45.241Z,37.00
2017-04-24T11:00:44.938Z,35.20
2017-04-24T11:01:45.413Z,34.60
2017-04-24T11:02:45.146Z,35.40
2017-04-24T11:03:44.990Z,35.10
2017-04-24T11:04:44.734Z,36.00
2017-04-24T11:05:44.427Z,35.40
2017-04-24T11:06:44.165Z,35.30
2017-04-24T11:07:43.859Z,35.10
2017-04-24T11:08:43.550Z,36.40
2017-04-24T11:09:43.342Z,35.00
2017-04-24T11:10:43.816Z,34.70
2017-04-24T11:11:43.530Z,35.40
2017-04-24T11:12:43.248Z,34.80
2017-04-24T11:13:42.968Z,35.80
2017-04-24T11:14:43.456Z,34.70
2017-04-24T11:15:43.160Z,34.30
2017-04-24T11:16:42.913Z,35.10
2017-04-24T11:17:43.106Z,33.00
2017-04-24T11:18:42.879Z,35.20
2017-04-24T11:19:43.584Z,34.20
2017-04-24T11:20:43.297Z,34.60
2017-04-24T11:21:42.998Z,35.30
2017-04-24T11:22:43.527Z,35.60
2017-04-24T11:23:43.251Z,36.10
2017-04-24T11:24:42.974Z,34.70
2017-04-24T11:25:42.733Z,35.90
2017-04-24T11:26:42.408Z,35.70
2017-04-24T11:27:42.146Z,34.70
2017-04-24T11:28:41.909Z,35.70
2017-04-24T11:29:41.618Z,35.50
2017-04-24T11:30:41.334Z,35.30
2017-04-24T11:31:41.092Z,35.20
2017-04-24T11:32:40.808Z,34.70
2017-04-24T11:33:41.244Z,33.70
2017-04-24T11:34:40.949Z,33.70
2017-04-24T11:35:40.649Z,33.70
2017-04-24T11:36:40.366Z,34.40
2017-04-24T11:37:40.177Z,35.90
2017-04-24T11:38:39.867Z,35.70
2017-04-24T11:39:39.607Z,36.10
2017-04-24T11:40:39.307Z,36.50
2017-04-24T11:41:38.997Z,36.50
2017-04-24T11:42:38.717Z,36.40
2017-04-24T11:43:39.270Z,37.10
2017-04-24T11:44:38.986Z,37.00
2017-04-24T11:45:38.716Z,34.80
2017-04-24T11:46:38.412Z,34.90
2017-04-24T11:47:38.195Z,36.40
2017-04-24T11:48:37.894Z,37.10
2017-04-24T11:49:37.693Z,36.70
2017-04-24T11:50:37.414Z,36.00
2017-04-24T11:51:37.112Z,35.50
2017-04-24T11:52:36.831Z,35.90
2017-04-24T11:53:36.565Z,35.30
2017-04-24T11:54:37.016Z,35.00
2017-04-24T11:55:36.778Z,34.90
2017-04-24T11:56:36.501Z,35.60
2017-04-24T11:57:36.955Z,35.90
2017-04-24T11:58:37.420Z,35.50
2017-04-24T11:59:37.130Z,34.70
2017-04-24T12:00:37.023Z,34.70
2017-04-24T12:01:36.733Z,35.00
2017-04-24T12:02:36.443Z,34.40
2017-04-24T12:03:36.141Z,35.10
2017-04-24T12:04:35.838Z,33.80
2017-04-24T12:05:35.570Z,34.90
2017-04-24T12:06:35.350Z,34.50
2017-04-24T12:07:35.033Z,33.30
2017-04-24T12:08:34.881Z,33.30
2017-04-24T12:09:34.605Z,34.50
2017-04-24T12:10:35.062Z,34.60
2017-04-24T12:11:34.846Z,34.10
2017-04-24T12:12:35.337Z,35.00
2017-04-24T12:13:35.063Z,34.50
2017-04-24T12:14:34.798Z,32.80
2017-04-24T12:15:35.276Z,32.90
2017-04-24T12:16:35.049Z,34.10
2017-04-24T12:17:34.782Z,34.00
2017-04-24T12:18:34.660Z,33.50
2017-04-24T12:19:34.372Z,34.50
2017-04-24T12:20:34.062Z,36.90
2017-04-24T12:21:33.752Z,35.50
2017-04-24T12:22:33.514Z,35.60
2017-04-24T12:23:33.224Z,35.40
2017-04-24T12:24:32.921Z,34.00
2017-04-24T12:25:32.642Z,34.70
2017-04-24T12:26:32.365Z,34.70
2017-04-24T12:27:32.644Z,34.60
2017-04-24T12:28:32.406Z,35.10
2017-04-24T12:29:32.115Z,34.60
2017-04-24T12:30:32.587Z,36.50
2017-04-24T12:31:32.354Z,36.10
2017-04-24T12:32:37.276Z,33.80
2017-04-24T12:33:37.060Z,34.50
2017-04-24T12:34:36.784Z,34.60
2017-04-24T12:35:36.476Z,34.50
2017-04-24T12:36:36.187Z,34.60
2017-04-24T12:37:35.884Z,36.60
2017-04-24T12:38:35.668Z,33.80
2017-04-24T12:39:35.452Z,33.90
2017-04-24T12:40:35.222Z,33.00
2017-04-24T12:41:34.957Z,33.40
2017-04-24T12:42:34.669Z,34.60
2017-04-24T12:43:34.362Z,34.60
2017-04-24T12:44:34.662Z,34.60
2017-04-24T12:45:35.238Z,33.70
2017-04-24T12:46:34.986Z,33.90
2017-04-24T12:47:34.794Z,34.70
2017-04-24T12:48:34.499Z,34.20
2017-04-24T12:49:34.189Z,35.50
2017-04-24T12:50:33.881Z,34.20
2017-04-24T12:51:33.795Z,33.80
2017-04-24T12:52:33.482Z,33.90